Terminal Aerodrome Forecast
Issued by NWS

Home | Current Version | Previous Version | Text Only | Print | Product List | Glossary On
Versions: 1 2 3 4 5 6 7 8 9 10 11 12 13 14 15 16 17 18 19 20 21 22 23 24 25 26
000
FTUS43 KGRB 250825 AAB
TAFRHI
TAF AMD
KRHI 250825Z 2508/2606 22009KT 3SM -SHSN OVC007
     FM251000 23011G21KT 6SM -SN BR OVC008
     FM251200 25014G26KT P6SM OVC010
     FM252100 25015G27KT P6SM BKN020
     FM252300 25013G24KT P6SM BKN030
     FM260200 25011KT P6SM BKN035=

USA.gov is the U.S. government's official web portal to all federal, state and local government web resources and services.